PST,Max TemperatureF,Mean TemperatureF,Min TemperatureF,Max Dew PointF,MeanDew PointF,Min DewpointF,Max Humidity, Mean Humidity, Min Humidity, Max Sea Level PressureIn, Mean Sea Level PressureIn, Min Sea Level PressureIn, Max VisibilityMiles, Mean VisibilityMiles, Min VisibilityMiles, Max Wind SpeedMPH, Mean Wind SpeedMPH, Max Gust SpeedMPH,PrecipitationIn, CloudCover, Events, WindDirDegrees
2013-11-1,62,43,24,38,30,22,100,70,39,30.31,30.23,29.96,10,4,0,15,3,,0.00,1,Fog,114
2013-11-2,53,40,27,39,32,25,85,64,42,30.06,29.92,29.75,10,10,10,35,14,46,0.02,2,Rain,244
2013-11-3,44,34,23,28,25,22,88,67,45,30.13,30.09,30.03,10,10,10,21,6,28,0.00,4,,260
2013-11-4,49,41,32,31,29,27,85,67,49,30.18,30.12,30.08,10,10,10,16,5,21,T,7,,264
2013-11-5,51,43,34,43,38,30,89,76,63,30.24,30.17,30.12,10,10,9,18,5,23,0.05,7,Rain,72
2013-11-6,60,46,32,44,41,31,100,77,53,30.30,30.24,30.12,10,10,8,9,2,12,T,5,Rain,352
2013-11-7,59,45,31,44,36,27,92,75,57,30.14,30.00,29.89,10,9,2,32,9,40,0.09,4,Rain,237
2013-11-8,46,38,30,34,29,27,92,71,49,30.19,30.15,30.13,10,10,10,9,2,12,0.00,4,,127
2013-11-9,48,37,25,34,29,22,92,69,45,30.14,30.12,30.09,10,10,10,9,2,13,0.00,1,,214
2013-11-10,63,47,31,40,34,30,100,68,36,30.18,30.13,30.07,10,10,5,9,3,12,0.00,0,,339
2013-11-11,41,35,29,37,35,28,100,90,79,30.33,30.24,30.17,10,5,0,6,1,15,0.00,8,Fog,336
2013-11-12,62,47,32,44,37,31,93,68,42,30.41,30.31,30.21,10,9,2,16,5,22,T,5,Rain,164
2013-11-13,57,41,25,39,31,24,96,68,39,30.48,30.39,30.27,10,7,0,8,4,10,0.00,2,Fog,137
2013-11-14,48,35,21,31,26,21,100,75,49,30.24,30.13,30.06,10,10,4,20,7,24,0.00,2,,251
2013-11-15,44,33,21,29,25,20,100,71,41,30.06,29.87,29.55,10,10,10,15,5,18,T,3,,179
2013-11-16,47,42,36,31,28,25,70,56,42,29.83,29.65,29.49,10,10,10,30,14,40,0.00,4,,268
2013-11-17,51,38,24,30,27,22,92,66,39,30.04,29.96,29.84,10,10,10,16,6,20,0.00,3,,185
2013-11-18,52,41,29,36,31,26,85,65,44,29.99,29.89,29.78,10,10,10,28,12,36,0.00,3,,167
2013-11-19,51,47,42,44,39,36,96,79,61,29.83,29.78,29.75,10,10,6,24,10,33,0.04,7,Rain,189
2013-11-20,42,30,18,39,19,1,92,65,38,30.40,30.13,29.84,10,10,10,20,10,25,T,1,,334
2013-11-21,32,16,0,8,2,-4,87,58,29,30.73,30.62,30.41,10,10,10,12,5,14,0.00,0,,263
2013-11-22,34,17,0,12,6,-2,87,63,38,30.77,30.70,30.64,10,10,10,10,4,13,0.00,0,,238
2013-11-23,36,21,5,15,9,3,96,70,43,30.63,30.52,30.37,10,10,10,7,3,8,0.00,0,,179
2013-11-24,56,31,6,20,14,6,91,56,20,30.38,30.33,30.24,10,10,10,10,4,12,0.00,0,,167
2013-11-25,48,30,11,21,16,10,88,61,34,30.46,30.40,30.35,10,10,10,13,3,14,0.00,0,,197
2013-11-26,48,32,15,23,17,12,88,63,38,30.37,30.28,30.19,10,10,10,7,3,8,0.00,0,,182
2013-11-27,42,30,17,24,20,15,92,72,51,30.18,30.14,30.08,10,10,8,8,3,11,0.00,0,,268
2013-11-28,51,32,13,27,20,14,100,70,39,30.26,30.20,30.13,10,9,7,10,3,11,0.00,0,,167
2013-11-29,56,36,15,27,23,14,92,61,30,30.34,30.28,30.22,10,10,10,8,3,10,0.00,3,,110
2013-11-30,56,45,33,35,32,25,89,66,43,30.38,30.31,30.23,10,10,10,13,3,14,T,5,,140